^^
Datos históricos de la estación: Murcia-Puente Tocinos
Diario Informe para Enero 28, 2020 Unidades:  Métrico    Ingés   Ambas
Diario Semanal Mensual Anual
  Máxima: Mínima: Promedio:
Temperatura: 20.5 °C 7.2 °C 13.5 °C
Punto de rocio: 10.7 °C 4.8 °C 7.8 °C
Humedad: 89% 48% 70%
Velocidad viento: 13.7km/h 0km/h 6.3km/h
Racha viento: 24.1km/h - -
Viento- - SSO
Presión: 1023.7 hPa 1020.3 hPa -
Precipitación: 0.0 mm    
 
 
Tabla de datos para Enero 28, 2020
Hora Temperatura Punto de rocio Presión Viento Velocidad viento Racha viento Humedad Intensidad lluvia(por hora) Nubes
00:04 10.2 °C 8.2 °C 1023.0 hPa Oeste 3.5 km/h 7.4 km/h 87.2% 0.0 mm
00:09 10.1 °C 8.2 °C 1023.0 hPa Oeste 3.2 km/h 8 km/h 88% 0.0 mm
00:14 10.1 °C 8.2 °C 1023.0 hPa Oeste 3.2 km/h 8 km/h 88% 0.0 mm
00:19 10.1 °C 8.2 °C 1023.0 hPa SSO 3.2 km/h 7.4 km/h 88.4% 0.0 mm
00:24 10.1 °C 8.4 °C 1023.0 hPa SSO 3.5 km/h 8 km/h 89% 0.0 mm
00:29 10.2 °C 8.4 °C 1023.0 hPa Sur 3.9 km/h 8 km/h 89% 0.0 mm
00:34 10.2 °C 8.4 °C 1023.0 hPa Sur 3.4 km/h 8 km/h 88.6% 0.0 mm
00:39 10.2 °C 8.3 °C 1023.0 hPa Sur 2.9 km/h 10 km/h 88% 0.0 mm
00:44 10.2 °C 8.3 °C 1023.0 hPa SSE 4.3 km/h 11.1 km/h 88% 0.0 mm
00:49 10.2 °C 8.2 °C 1023.0 hPa Sur 5.8 km/h 11.3 km/h 88% 0.0 mm
00:54 10 °C 8.1 °C 1023.0 hPa Sur 6.6 km/h 13.7 km/h 88% 0.0 mm
00:59 9.8 °C 7.9 °C 1022.7 hPa Sur 7.6 km/h 14.8 km/h 88.2% 0.0 mm
01:04 9.8 °C 8.1 °C 1022.7 hPa SSO 8 km/h 14.5 km/h 89% 0.0 mm
01:09 9.8 °C 8.1 °C 1022.7 hPa SO 8.4 km/h 11.3 km/h 89% 0.0 mm
01:14 9.8 °C 8.1 °C 1022.7 hPa Oeste 7.1 km/h 11.3 km/h 89% 0.0 mm
01:19 9.7 °C 8 °C 1022.7 hPa OSO 5.8 km/h 8 km/h 89% 0.0 mm
01:24 9.7 °C 8 °C 1023.0 hPa OSO 5.2 km/h 8 km/h 89% 0.0 mm
01:29 9.6 °C 7.9 °C 1023.0 hPa SO 4.6 km/h 10 km/h 89% 0.0 mm
01:34 9.7 °C 8 °C 1023.0 hPa Sur 4.8 km/h 11.1 km/h 89% 0.0 mm
01:39 9.7 °C 7.8 °C 1023.0 hPa Sur 5 km/h 11.3 km/h 87.9% 0.0 mm
01:44 9.7 °C 7.6 °C 1022.7 hPa SSE 5.9 km/h 11.3 km/h 86.7% 0.0 mm
01:49 9.7 °C 7.4 °C 1022.7 hPa SSE 6.9 km/h 11.3 km/h 85.9% 0.0 mm
01:54 9.4 °C 7 °C 1022.7 hPa SSE 6.7 km/h 11.9 km/h 85% 0.0 mm
01:59 9.2 °C 6.8 °C 1022.7 hPa SSO 6.5 km/h 11.3 km/h 85% 0.0 mm
02:04 9.2 °C 7 °C 1022.7 hPa SSO 5.6 km/h 8 km/h 86% 0.0 mm
02:09 9.2 °C 7 °C 1022.7 hPa SO 4.6 km/h 8.4 km/h 86% 0.0 mm
02:14 9.2 °C 7.2 °C 1022.7 hPa SO 4.8 km/h 8.4 km/h 87% 0.0 mm
02:19 9.2 °C 7.2 °C 1022.7 hPa SO 5 km/h 8 km/h 87% 0.0 mm
02:24 9.2 °C 7.1 °C 1022.7 hPa SO 4.5 km/h 8 km/h 86.6% 0.0 mm
02:29 9.2 °C 7 °C 1022.7 hPa SO 3.9 km/h 4.8 km/h 86% 0.0 mm
02:34 9.1 °C 7 °C 1022.7 hPa SO 2.1 km/h 7.4 km/h 86.6% 0.0 mm
02:39 9.1 °C 7 °C 1022.7 hPa Calm   8.4 km/h 87% 0.0 mm
02:44 9 °C 7 °C 1022.7 hPa SSO 2.3 km/h 8 km/h 87% 0.0 mm
02:49 9 °C 6.9 °C 1022.7 hPa Sur 5 km/h 8 km/h 87% 0.0 mm
02:54 8.9 °C 6.8 °C 1022.7 hPa Sur 4.5 km/h 8 km/h 87% 0.0 mm
02:59 8.8 °C 6.8 °C 1022.4 hPa SO 3.9 km/h 9.3 km/h 87% 0.0 mm
03:04 8.8 °C 6.8 °C 1022.4 hPa SO 4.8 km/h 9.7 km/h 87% 0.0 mm
03:09 8.8 °C 6.7 °C 1022.4 hPa Oeste 5.8 km/h 9.7 km/h 86.8% 0.0 mm
03:14 8.8 °C 6.6 °C 1022.4 hPa Oeste 5.2 km/h 8 km/h 86% 0.0 mm
03:19 8.7 °C 6.5 °C 1022.4 hPa SSO 4.6 km/h 7.6 km/h 86% 0.0 mm
03:24 8.7 °C 6.5 °C 1022.4 hPa SSO 4.8 km/h 10 km/h 86% 0.0 mm
03:29 8.7 °C 6.5 °C 1022.4 hPa SO 5 km/h 9.7 km/h 86% 0.0 mm
03:34 8.7 °C 6.5 °C 1022.4 hPa OSO 5.4 km/h 9.7 km/h 86% 0.0 mm
03:39 8.6 °C 6.4 °C 1022.4 hPa SO 5.8 km/h 12.2 km/h 86% 0.0 mm
03:44 8.6 °C 6.4 °C 1022.4 hPa SO 5.8 km/h 13 km/h 86% 0.0 mm
03:49 8.6 °C 6.4 °C 1022.4 hPa SSO 5.8 km/h 11.3 km/h 86% 0.0 mm
03:54 8.7 °C 6.4 °C 1022.4 hPa SO 5.4 km/h 8 km/h 86% 0.0 mm
03:59 8.7 °C 6.5 °C 1022.4 hPa Sur 5 km/h 8 km/h 86% 0.0 mm
04:04 8.6 °C 6.3 °C 1022.4 hPa SSE 4.4 km/h 8 km/h 85.2% 0.0 mm
04:09 8.4 °C 6.2 °C 1022.4 hPa Sur 3.9 km/h 8.4 km/h 85.7% 0.0 mm
04:14 8.4 °C 6.2 °C 1022.4 hPa Sur 4.8 km/h 9.5 km/h 86% 0.0 mm
04:19 8.3 °C 6.3 °C 1022.4 hPa Sur 5.8 km/h 9.7 km/h 87% 0.0 mm
04:24 8.2 °C 6.2 °C 1022.4 hPa Sur 6.1 km/h 9.7 km/h 87% 0.0 mm
04:29 8.2 °C 6.2 °C 1022.4 hPa SSO 6.5 km/h 9.7 km/h 87% 0.0 mm
04:34 8.2 °C 6.2 °C 1022.4 hPa SSO 6.5 km/h 11.1 km/h 87% 0.0 mm
04:39 8.3 °C 6.3 °C 1022.4 hPa SO 6.5 km/h 11.3 km/h 87% 0.0 mm
04:44 8.3 °C 6.2 °C 1022.0 hPa SO 6.7 km/h 11.3 km/h 86.6% 0.0 mm
04:49 8.4 °C 6.1 °C 1022.0 hPa Sur 6.9 km/h 11.3 km/h 85.9% 0.0 mm
04:54 8.3 °C 5.9 °C 1022.4 hPa SSE 6.7 km/h 11.1 km/h 85% 0.0 mm
04:59 8.2 °C 5.9 °C 1022.4 hPa SSE 6.5 km/h 13 km/h 85% 0.0 mm
05:04 8.2 °C 5.8 °C 1022.4 hPa Sur 6.7 km/h 12.9 km/h 85% 0.0 mm
05:09 8.1 °C 5.9 °C 1022.4 hPa Sur 6.9 km/h 11.3 km/h 85.8% 0.0 mm
05:14 8.1 °C 5.9 °C 1022.4 hPa SO 5.9 km/h 9.7 km/h 86% 0.0 mm
05:19 8.1 °C 5.9 °C 1022.4 hPa SO 4.7 km/h 9.5 km/h 86% 0.0 mm
05:24 8.1 °C 5.9 °C 1022.4 hPa SO 5.2 km/h 9.7 km/h 86% 0.0 mm
05:29 8.2 °C 6 °C 1022.0 hPa SO 5.8 km/h 11.1 km/h 86% 0.0 mm
05:34 8.2 °C 6 °C 1022.0 hPa OSO 5.4 km/h 11.3 km/h 86% 0.0 mm
05:39 8.2 °C 6 °C 1022.0 hPa Oeste 5 km/h 8 km/h 86% 0.0 mm
05:44 8.2 °C 5.8 °C 1022.0 hPa ONO 4.1 km/h 8 km/h 85.3% 0.0 mm
05:49 8.1 °C 5.7 °C 1022.0 hPa OSO 3.2 km/h 8 km/h 85% 0.0 mm
05:54 7.9 °C 5.6 °C 1022.0 hPa OSO 3.5 km/h 8 km/h 85% 0.0 mm
05:59 7.8 °C 5.6 °C 1022.0 hPa SO 3.9 km/h 8 km/h 85.5% 0.0 mm
06:04 7.9 °C 5.7 °C 1022.0 hPa SSO 3.5 km/h 6.9 km/h 86% 0.0 mm
06:09 7.9 °C 5.7 °C 1022.0 hPa SE 3.2 km/h 8 km/h 86% 0.0 mm
06:14 7.9 °C 5.7 °C 1022.0 hPa SE 3.5 km/h 8 km/h 86% 0.0 mm
06:19 7.9 °C 5.7 °C 1022.0 hPa SSE 3.9 km/h 9.5 km/h 86% 0.0 mm
06:24 7.7 °C 5.6 °C 1022.0 hPa SSE 4.2 km/h 9.7 km/h 86% 0.0 mm
06:29 7.6 °C 5.4 °C 1022.0 hPa SSE 4.7 km/h 10.3 km/h 86% 0.0 mm
06:34 7.4 °C 5.3 °C 1022.0 hPa SSE 5.2 km/h 9.7 km/h 86.6% 0.0 mm
06:39 7.4 °C 5.4 °C 1022.0 hPa Sur 5.8 km/h 11.1 km/h 87% 0.0 mm
06:44 7.5 °C 5.5 °C 1022.0 hPa SSO 6.3 km/h 13.7 km/h 87% 0.0 mm
06:49 7.7 °C 5.5 °C 1022.0 hPa SSO 6.9 km/h 14.5 km/h 86% 0.0 mm
06:54 7.8 °C 5.5 °C 1022.0 hPa SSO 6.9 km/h 14 km/h 84.7% 0.0 mm
06:59 7.9 °C 5.3 °C 1022.0 hPa SSO 6.9 km/h 14.8 km/h 83.5% 0.0 mm
07:04 7.9 °C 5.2 °C 1022.0 hPa SSO 6.7 km/h 12.9 km/h 83% 0.0 mm
07:09 7.9 °C 5.2 °C 1022.0 hPa SO 6.5 km/h 8 km/h 83% 0.0 mm
07:14 7.9 °C 5.2 °C 1022.0 hPa OSO 5.8 km/h 9.3 km/h 83% 0.0 mm
07:19 7.9 °C 5.2 °C 1022.0 hPa OSO 5 km/h 9.7 km/h 83% 0.0 mm
07:24 7.9 °C 5.2 °C 1022.4 hPa SO 5.4 km/h 9.7 km/h 83% 0.0 mm
07:29 7.9 °C 5.2 °C 1022.4 hPa SSO 5.8 km/h 9.7 km/h 83% 0.0 mm
07:34 7.9 °C 5.2 °C 1022.4 hPa SSO 5.4 km/h 9.5 km/h 83% 0.0 mm
07:39 8 °C 5.2 °C 1022.4 hPa SSO 5 km/h 9.7 km/h 83% 0.0 mm
07:44 8 °C 5.3 °C 1022.4 hPa SSO 5.7 km/h 11.1 km/h 83% 0.0 mm
07:49 8.1 °C 5.4 °C 1022.4 hPa SO 6.5 km/h 11.3 km/h 83% 0.0 mm
07:54 8.1 °C 5.4 °C 1022.4 hPa OSO 5.8 km/h 9.7 km/h 83% 0.0 mm
07:59 8 °C 5.2 °C 1022.4 hPa SO 5 km/h 8 km/h 83% 0.0 mm
08:04 7.9 °C 5.2 °C 1022.4 hPa SO 3.6 km/h 8 km/h 83% 0.0 mm
08:09 7.9 °C 5.2 °C 1022.7 hPa SO 2.2 km/h 5.8 km/h 83% 0.0 mm
08:14 7.8 °C 5.1 °C 1022.7 hPa SE 2.6 km/h 11.1 km/h 83% 0.0 mm
08:19 7.6 °C 4.9 °C 1022.7 hPa SE 2.9 km/h 11.3 km/h 83.3% 0.0 mm
08:24 7.3 °C 4.8 °C 1022.7 hPa SE 5.1 km/h 11.3 km/h 84% 0.0 mm
08:29 7.2 °C 4.8 °C 1022.7 hPa SSE 7.6 km/h 9.7 km/h 85.1% 0.0 mm
08:34 7.2 °C 5 °C 1022.7 hPa SSE 5.9 km/h 8 km/h 86% 0.0 mm
08:39 7.2 °C 5 °C 1023.0 hPa SSE 3.9 km/h 8 km/h 86% 0.0 mm
08:44 7.3 °C 5.1 °C 1023.0 hPa SSE 3.9 km/h 8 km/h 86% 0.0 mm
08:49 7.3 °C 5.2 °C 1023.0 hPa Sur 3.9 km/h 7.4 km/h 86% 0.0 mm
08:54 7.6 °C 5.4 °C 1023.0 hPa SO 3.9 km/h 8 km/h 86% 0.0 mm
08:59 7.8 °C 5.4 °C 1023.0 hPa SO 3.9 km/h 8 km/h 85% 0.0 mm
09:04 8 °C 5.5 °C 1023.0 hPa SO 4.3 km/h 9.5 km/h 84.4% 0.0 mm
09:09 8.2 °C 5.5 °C 1023.0 hPa SO 4.7 km/h 10 km/h 83.2% 0.0 mm
09:14 8.4 °C 5.5 °C 1022.7 hPa SO 4.8 km/h 9.7 km/h 82.1% 0.0 mm
09:19 8.7 °C 5.7 °C 1022.7 hPa OSO 5 km/h 5.8 km/h 81.9% 0.0 mm
09:24 8.7 °C 5.6 °C 1023.0 hPa ONO 4 km/h 6.4 km/h 81% 0.0 mm
09:29 8.7 °C 5.6 °C 1023.0 hPa ONO 2.9 km/h 6.4 km/h 81.2% 0.0 mm
09:34 8.8 °C 5.7 °C 1023.0 hPa ONO 1.6 km/h 7.4 km/h 81.2% 0.0 mm
09:39 8.8 °C 5.8 °C 1023.0 hPa Calm   8 km/h 81% 0.0 mm
09:44 9.1 °C 5.9 °C 1023.0 hPa ENE 1.1 km/h 5.6 km/h 80.7% 0.0 mm
09:49 9.3 °C 6 °C 1023.0 hPa Este 2.2 km/h 5.8 km/h 80% 0.0 mm
09:54 9.6 °C 6.1 °C 1023.0 hPa Este 2.5 km/h 6.4 km/h 79% 0.0 mm
09:59 9.8 °C 6.3 °C 1023.0 hPa Este 2.9 km/h 9.3 km/h 79% 0.0 mm
10:04 9.9 °C 6.3 °C 1023.0 hPa NE 3.1 km/h 9.7 km/h 78% 0.0 mm
10:09 10 °C 6.3 °C 1023.4 hPa ENE 3.2 km/h 8 km/h 77.8% 0.0 mm
10:14 10.2 °C 6.6 °C 1023.4 hPa ESE 3.2 km/h 8.4 km/h 78.4% 0.0 mm
10:19 10.3 °C 6.7 °C 1023.4 hPa SE 3.2 km/h 8.4 km/h 78% 0.0 mm
10:24 10.6 °C 6.9 °C 1023.4 hPa SSE 4.4 km/h 11.1 km/h 77.9% 0.0 mm
10:29 10.7 °C 6.8 °C 1023.4 hPa SSE 5.8 km/h 11.3 km/h 76.8% 0.0 mm
10:34 10.8 °C 6.7 °C 1023.4 hPa SE 6.3 km/h 11.3 km/h 75.8% 0.0 mm
10:39 11.1 °C 6.7 °C 1023.7 hPa SE 6.9 km/h 9.7 km/h 74.2% 0.0 mm
10:44 11.5 °C 6.6 °C 1023.7 hPa SE 6.1 km/h 9.5 km/h 72.1% 0.0 mm
10:49 11.8 °C 6.7 °C 1023.7 hPa SE 5 km/h 9.7 km/h 71% 0.0 mm
10:54 12.1 °C 7 °C 1023.7 hPa SE 5.7 km/h 11.1 km/h 70.8% 0.0 mm
10:59 12.3 °C 7.1 °C 1023.4 hPa SSE 6.5 km/h 14.8 km/h 70.4% 0.0 mm
11:04 12.5 °C 7.1 °C 1023.4 hPa SSE 7.4 km/h 14.5 km/h 70% 0.0 mm
11:09 12.5 °C 7.2 °C 1023.7 hPa SSE 8.4 km/h 14.8 km/h 70% 0.0 mm
11:14 12.7 °C 7.3 °C 1023.7 hPa Sur 8.5 km/h 14.5 km/h 69.7% 0.0 mm
11:19 12.9 °C 7.2 °C 1023.7 hPa SSO 8.7 km/h 12.9 km/h 68.3% 0.0 mm
11:24 13.2 °C 7.1 °C 1023.7 hPa SSO 7.9 km/h 11.3 km/h 66.7% 0.0 mm
11:29 13.6 °C 7.2 °C 1023.7 hPa SSO 6.9 km/h 11.1 km/h 65.3% 0.0 mm
11:34 14 °C 7 °C 1023.7 hPa SSO 6.4 km/h 13 km/h 62.9% 0.0 mm
11:39 14.3 °C 7 °C 1023.7 hPa SSO 5.8 km/h 13.7 km/h 61.5% 0.0 mm
11:44 14.7 °C 7.4 °C 1023.4 hPa SSE 7.1 km/h 15.6 km/h 61.5% 0.0 mm
11:49 14.9 °C 7.5 °C 1023.4 hPa SSE 8.7 km/h 17.2 km/h 61.5% 0.0 mm
11:54 15 °C 7.3 °C 1023.4 hPa Sur 8.7 km/h 17.7 km/h 60.2% 0.0 mm
11:59 15.1 °C 7.2 °C 1023.4 hPa SSO 8.7 km/h 13 km/h 59.1% 0.0 mm
12:04 15.2 °C 7.3 °C 1023.4 hPa SSO 8.1 km/h 12.9 km/h 59.2% 0.0 mm
12:09 15.2 °C 7 °C 1023.4 hPa SSO 7.6 km/h 11.9 km/h 58% 0.0 mm
12:14 15.2 °C 7.1 °C 1023.4 hPa SSO 7.6 km/h 11.3 km/h 58.5% 0.0 mm
12:19 15.3 °C 7.3 °C 1023.4 hPa SO 7.6 km/h 11.3 km/h 59% 0.0 mm
12:24 15.4 °C 7.3 °C 1023.4 hPa SSO 6.3 km/h 11.1 km/h 58.6% 0.0 mm
12:29 15.6 °C 7.3 °C 1023.0 hPa SSO 5 km/h 11.9 km/h 57.8% 0.0 mm
12:34 15.8 °C 7.3 °C 1023.0 hPa SSO 6.2 km/h 13.7 km/h 57.1% 0.0 mm
12:39 15.9 °C 7.3 °C 1023.0 hPa SSO 7.6 km/h 14.5 km/h 56.7% 0.0 mm
12:44 16.1 °C 7.3 °C 1023.0 hPa SSO 7.9 km/h 14.5 km/h 56.1% 0.0 mm
12:49 16.2 °C 7.5 °C 1023.0 hPa Sur 8.4 km/h 13 km/h 56.1% 0.0 mm
12:54 16.5 °C 7.7 °C 1023.0 hPa SSO 7.7 km/h 13 km/h 56.1% 0.0 mm
12:59 16.7 °C 7.7 °C 1022.7 hPa SSO 6.9 km/h 16.7 km/h 55.1% 0.0 mm
13:04 16.8 °C 7.7 °C 1022.7 hPa SSO 7.8 km/h 16.1 km/h 55% 0.0 mm
13:09 16.8 °C 7.7 °C 1022.7 hPa SSO 8.7 km/h 14.8 km/h 55% 0.0 mm
13:14 17 °C 7.8 °C 1022.4 hPa SSO 8.7 km/h 17.2 km/h 54.5% 0.0 mm
13:19 17.2 °C 7.8 °C 1022.4 hPa SSO 8.7 km/h 17.7 km/h 54% 0.0 mm
13:24 17.4 °C 7.8 °C 1022.4 hPa SO 9.3 km/h 16.1 km/h 53.3% 0.0 mm
13:29 17.4 °C 7.5 °C 1022.0 hPa SSO 10 km/h 14.8 km/h 52% 0.0 mm
13:34 17.5 °C 7.6 °C 1022.0 hPa SSO 9.2 km/h 14.8 km/h 52% 0.0 mm
13:39 17.6 °C 7.6 °C 1022.0 hPa SSO 8.4 km/h 14.5 km/h 52% 0.0 mm
13:44 17.7 °C 7.7 °C 1021.7 hPa SSO 7.7 km/h 11.3 km/h 52% 0.0 mm
13:49 17.9 °C 7.8 °C 1021.7 hPa SO 6.9 km/h 13 km/h 51.9% 0.0 mm
13:54 18.1 °C 7.8 °C 1021.7 hPa SSO 6.7 km/h 12.9 km/h 51% 0.0 mm
13:59 18.1 °C 7.9 °C 1021.3 hPa SO 6.5 km/h 17.2 km/h 51.3% 0.0 mm
14:04 18.1 °C 8.1 °C 1021.3 hPa SSO 7.6 km/h 17.7 km/h 51.9% 0.0 mm
14:09 18.2 °C 8.2 °C 1021.3 hPa SO 8.7 km/h 14.5 km/h 52% 0.0 mm
14:14 18.5 °C 8.1 °C 1021.3 hPa SO 7.6 km/h 9.7 km/h 51% 0.0 mm
14:19 18.6 °C 8.2 °C 1021.3 hPa SSO 6.5 km/h 11.1 km/h 50.8% 0.0 mm
14:24 18.7 °C 8.1 °C 1021.3 hPa Sur 6.5 km/h 11.3 km/h 50% 0.0 mm
14:29 18.8 °C 8.1 °C 1021.0 hPa SSO 6.5 km/h 13 km/h 49.9% 0.0 mm
14:34 18.8 °C 8.1 °C 1021.0 hPa SSO 7 km/h 13.7 km/h 49.8% 0.0 mm
14:39 18.9 °C 8.2 °C 1021.0 hPa SSO 7.6 km/h 14.5 km/h 49.6% 0.0 mm
14:44 19.1 °C 8.3 °C 1020.7 hPa SSO 7.3 km/h 12.9 km/h 49.5% 0.0 mm
14:49 19.2 °C 8.2 °C 1020.7 hPa SSO 6.9 km/h 13 km/h 49% 0.0 mm
14:54 19.3 °C 8.3 °C 1020.7 hPa Sur 7.3 km/h 14.8 km/h 49% 0.0 mm
14:59 19.5 °C 8.5 °C 1020.7 hPa SSO 7.6 km/h 14.5 km/h 49% 0.0 mm
15:04 19.7 °C 8.5 °C 1020.7 hPa SO 7.2 km/h 13 km/h 48.4% 0.0 mm
15:09 19.7 °C 8.6 °C 1020.7 hPa SO 6.9 km/h 12.9 km/h 48.5% 0.0 mm
15:14 19.9 °C 8.5 °C 1020.7 hPa SSO 6.9 km/h 14.8 km/h 48% 0.0 mm
15:19 19.8 °C 8.5 °C 1020.7 hPa SO 6.9 km/h 15.6 km/h 48% 0.0 mm
15:24 19.8 °C 8.7 °C 1020.7 hPa SO 7.8 km/h 16.1 km/h 49% 0.0 mm
15:29 19.9 °C 8.9 °C 1020.3 hPa SO 8.7 km/h 14.8 km/h 49% 0.0 mm
15:34 19.9 °C 8.9 °C 1020.3 hPa SSO 8.7 km/h 15.6 km/h 49.1% 0.0 mm
15:39 19.9 °C 8.9 °C 1020.3 hPa SSO 8.7 km/h 16.1 km/h 49% 0.0 mm
15:44 20 °C 8.9 °C 1020.3 hPa Sur 8.7 km/h 16.1 km/h 49% 0.0 mm
15:49 20.1 °C 9 °C 1020.3 hPa SSE 8.7 km/h 13.7 km/h 49% 0.0 mm
15:54 20.1 °C 9.1 °C 1020.3 hPa SSO 8.6 km/h 14.5 km/h 49% 0.0 mm
15:59 20.2 °C 9.1 °C 1020.3 hPa SSO 8.4 km/h 12.9 km/h 49% 0.0 mm
16:04 20.2 °C 9.2 °C 1020.3 hPa SO 7.7 km/h 11.3 km/h 49% 0.0 mm
16:09 20.3 °C 9.2 °C 1020.3 hPa SSO 6.9 km/h 14.8 km/h 49% 0.0 mm
16:14 20.3 °C 9.2 °C 1020.3 hPa Sur 7.8 km/h 15.6 km/h 49% 0.0 mm
16:19 20.3 °C 9.3 °C 1020.3 hPa Sur 8.7 km/h 16.1 km/h 49.1% 0.0 mm
16:24 20.3 °C 9.5 °C 1020.3 hPa SSO 9.1 km/h 14.8 km/h 49.9% 0.0 mm
16:29 20.3 °C 9.5 °C 1020.3 hPa SSO 9.5 km/h 14.8 km/h 49.7% 0.0 mm
16:34 20.4 °C 9.6 °C 1020.3 hPa SSO 8.6 km/h 14.5 km/h 49.8% 0.0 mm
16:39 20.5 °C 9.4 °C 1020.3 hPa SSO 7.6 km/h 13 km/h 49% 0.0 mm
16:44 20.5 °C 9.4 °C 1020.3 hPa SSO 8 km/h 17.2 km/h 49% 0.0 mm
16:49 20.4 °C 9.5 °C 1020.3 hPa SSO 8.4 km/h 18.5 km/h 49.5% 0.0 mm
16:54 20.2 °C 9.5 °C 1020.3 hPa SSO 9.1 km/h 19.3 km/h 50% 0.0 mm
16:59 20.2 °C 9.4 °C 1020.3 hPa SO 10 km/h 16.7 km/h 50% 0.0 mm
17:04 20.1 °C 9.3 °C 1020.3 hPa OSO 9.2 km/h 16.4 km/h 50% 0.0 mm
17:09 20.2 °C 9.4 °C 1020.7 hPa SO 8.4 km/h 16.1 km/h 50% 0.0 mm
17:14 20.3 °C 9.5 °C 1020.7 hPa OSO 7.7 km/h 13.7 km/h 50% 0.0 mm
17:19 20.3 °C 9.6 °C 1020.7 hPa Oeste 6.9 km/h 14.5 km/h 50.1% 0.0 mm
17:24 20.2 °C 9.7 °C 1020.7 hPa Oeste 7.7 km/h 18.5 km/h 51% 0.0 mm
17:29 20 °C 9.5 °C 1020.7 hPa Oeste 8.7 km/h 19.3 km/h 51% 0.0 mm
17:34 19.9 °C 9.4 °C 1020.7 hPa Oeste 9.9 km/h 19.3 km/h 51% 0.0 mm
17:39 19.8 °C 9.4 °C 1020.7 hPa ONO 11.1 km/h 20.4 km/h 51% 0.0 mm
17:44 19.8 °C 9.4 °C 1020.7 hPa ONO 11.7 km/h 22.5 km/h 51% 0.0 mm
17:49 19.7 °C 9.3 °C 1020.7 hPa ONO 12.2 km/h 24.1 km/h 51% 0.0 mm
17:54 19.6 °C 9.2 °C 1020.7 hPa ONO 12.6 km/h 24.1 km/h 51% 0.0 mm
17:59 19.4 °C 9 °C 1020.7 hPa Oeste 13 km/h 24.1 km/h 51% 0.0 mm
18:04 19.3 °C 8.9 °C 1020.7 hPa Oeste 13.4 km/h 24.1 km/h 51% 0.0 mm
18:09 19.2 °C 9 °C 1020.7 hPa Oeste 13.7 km/h 22.5 km/h 51.7% 0.0 mm
18:14 19.1 °C 9 °C 1020.7 hPa Oeste 12.8 km/h 20.9 km/h 52% 0.0 mm
18:19 19 °C 9.1 °C 1020.7 hPa OSO 11.9 km/h 19.3 km/h 52.8% 0.0 mm
18:24 18.9 °C 9.1 °C 1021.0 hPa OSO 10.3 km/h 16.7 km/h 53% 0.0 mm
18:29 18.8 °C 9 °C 1021.0 hPa OSO 8.4 km/h 16.1 km/h 53% 0.0 mm
18:34 18.7 °C 9 °C 1021.0 hPa OSO 7.4 km/h 11.9 km/h 53.1% 0.0 mm
18:39 18.6 °C 9.1 °C 1021.0 hPa SO 6.5 km/h 11.3 km/h 54% 0.0 mm
18:44 18.5 °C 9.7 °C 1021.0 hPa Sur 5.8 km/h 10 km/h 56.6% 0.0 mm
18:49 18.3 °C 10.3 °C 1021.0 hPa Sur 5 km/h 10 km/h 59.5% 0.0 mm
18:54 18.1 °C 10.5 °C 1021.3 hPa SSO 5 km/h 9.7 km/h 61% 0.0 mm
18:59 17.9 °C 9.9 °C 1021.3 hPa OSO 5 km/h 11.9 km/h 59.5% 0.0 mm
19:04 17.9 °C 10.2 °C 1021.3 hPa SO 5.4 km/h 11.3 km/h 60.7% 0.0 mm
19:09 17.9 °C 10.1 °C 1021.3 hPa SO 5.8 km/h 11.1 km/h 60.2% 0.0 mm
19:14 17.9 °C 10.1 °C 1021.3 hPa SO 5.8 km/h 11.3 km/h 60.4% 0.0 mm
19:19 17.9 °C 10.4 °C 1021.3 hPa SSO 5.8 km/h 9.7 km/h 61.6% 0.0 mm
19:24 17.8 °C 10.4 °C 1021.7 hPa SO 5.3 km/h 9.5 km/h 62.1% 0.0 mm
19:29 17.7 °C 10.5 °C 1021.7 hPa SO 4.7 km/h 11.9 km/h 62.8% 0.0 mm
19:34 17.5 °C 10.4 °C 1021.7 hPa SSO 5.7 km/h 13 km/h 63.1% 0.0 mm
19:39 17.4 °C 10.5 °C 1021.7 hPa SSO 6.9 km/h 12.9 km/h 64% 0.0 mm
19:44 17.3 °C 10.5 °C 1021.7 hPa SSO 6.9 km/h 12.2 km/h 64.7% 0.0 mm
19:49 17.1 °C 10.7 °C 1021.7 hPa SSO 6.9 km/h 13.7 km/h 66% 0.0 mm
19:54 17 °C 10.4 °C 1021.7 hPa SSO 7.8 km/h 16.1 km/h 65% 0.0 mm
19:59 17.1 °C 10.1 °C 1021.7 hPa SO 8.7 km/h 16.7 km/h 63.3% 0.0 mm
20:04 17.2 °C 10.1 °C 1021.7 hPa SSO 9.3 km/h 14.8 km/h 63% 0.0 mm
20:09 17.2 °C 10.3 °C 1022.0 hPa SSO 10 km/h 13.7 km/h 63.9% 0.0 mm
20:14 16.9 °C 10.4 °C 1022.0 hPa SSO 9.4 km/h 14.8 km/h 65.3% 0.0 mm
20:19 16.8 °C 10.4 °C 1022.0 hPa SO 8.7 km/h 14.5 km/h 66% 0.0 mm
20:24 16.7 °C 10.3 °C 1022.0 hPa SO 8.6 km/h 13.7 km/h 66% 0.0 mm
20:29 16.7 °C 10.2 °C 1022.0 hPa SSO 8.4 km/h 14.8 km/h 65.3% 0.0 mm
20:34 16.8 °C 10.1 °C 1022.0 hPa SSO 8 km/h 14.5 km/h 65% 0.0 mm
20:39 16.8 °C 10.2 °C 1022.0 hPa SO 7.6 km/h 12.9 km/h 65% 0.0 mm
20:44 16.8 °C 10.1 °C 1022.0 hPa SO 6.7 km/h 11.3 km/h 64.6% 0.0 mm
20:49 16.8 °C 9.9 °C 1022.0 hPa OSO 5.8 km/h 9.7 km/h 64% 0.0 mm
20:54 16.8 °C 9.9 °C 1022.0 hPa OSO 5.8 km/h 9.7 km/h 63.9% 0.0 mm
20:59 16.8 °C 9.7 °C 1022.0 hPa SO 5.8 km/h 11.1 km/h 62.8% 0.0 mm
21:04 16.8 °C 9.5 °C 1022.0 hPa SSO 5.4 km/h 11.3 km/h 62% 0.0 mm
21:09 16.8 °C 9.5 °C 1022.4 hPa SSO 5 km/h 9.7 km/h 62% 0.0 mm
21:14 16.9 °C 9.6 °C 1022.4 hPa SO 5 km/h 10 km/h 62% 0.0 mm
21:19 16.9 °C 9.4 °C 1022.4 hPa SO 5 km/h 14.8 km/h 61.2% 0.0 mm
21:24 17.1 °C 9.2 °C 1022.4 hPa SO 5.6 km/h 14.5 km/h 60% 0.0 mm
21:29 17.1 °C 9.3 °C 1022.4 hPa OSO 6.5 km/h 11.1 km/h 60% 0.0 mm
21:34 17 °C 9.7 °C 1022.4 hPa SSE 6.1 km/h 11.3 km/h 62.1% 0.0 mm
21:39 16.7 °C 9.9 °C 1022.4 hPa Sur 5.8 km/h 14.8 km/h 64.3% 0.0 mm
21:44 16.4 °C 9.9 °C 1022.4 hPa SSO 7.1 km/h 14.8 km/h 65.5% 0.0 mm
21:49 16.3 °C 9.9 °C 1022.4 hPa SSO 8.7 km/h 14.5 km/h 66% 0.0 mm
21:54 16.2 °C 9.9 °C 1022.4 hPa SSO 7.6 km/h 11.3 km/h 66.2% 0.0 mm
21:59 16.2 °C 10 °C 1022.4 hPa SSE 6.5 km/h 8 km/h 67% 0.0 mm
22:04 16.1 °C 9.9 °C 1022.4 hPa SSE 4.2 km/h 7.4 km/h 67% 0.0 mm
22:09 16 °C 10 °C 1022.4 hPa SE 2.2 km/h 8 km/h 67.5% 0.0 mm
22:14 15.9 °C 10 °C 1022.4 hPa Sur 2.7 km/h 8.4 km/h 68% 0.0 mm
22:19 15.8 °C 9.9 °C 1022.4 hPa SO 3.2 km/h 11.1 km/h 68% 0.0 mm
22:24 15.8 °C 9.8 °C 1022.4 hPa SO 5 km/h 11.9 km/h 67.6% 0.0 mm
22:29 15.8 °C 9.7 °C 1022.4 hPa SSO 6.9 km/h 11.3 km/h 67% 0.0 mm
22:34 15.8 °C 9.7 °C 1022.4 hPa OSO 6.4 km/h 9.7 km/h 67.2% 0.0 mm
22:39 15.7 °C 9.7 °C 1022.4 hPa SO 5.8 km/h 8 km/h 67.5% 0.0 mm
22:44 15.7 °C 9.6 °C 1022.4 hPa SSO 5.3 km/h 9.5 km/h 67.1% 0.0 mm
22:49 15.7 °C 9.6 °C 1022.4 hPa SSO 4.7 km/h 9.7 km/h 67% 0.0 mm
22:54 15.7 °C 9.6 °C 1022.7 hPa Sur 5.2 km/h 9.7 km/h 67% 0.0 mm
22:59 15.7 °C 9.8 °C 1022.7 hPa Sur 5.8 km/h 9.7 km/h 67.9% 0.0 mm
23:04 15.5 °C 9.7 °C 1022.7 hPa Sur 6.1 km/h 9.7 km/h 68.5% 0.0 mm
23:09 15.4 °C 9.7 °C 1022.7 hPa SSE 6.5 km/h 10 km/h 69.1% 0.0 mm
23:14 15.2 °C 9.8 °C 1022.4 hPa SSE 6.7 km/h 16.7 km/h 70.2% 0.0 mm
23:19 14.8 °C 9.8 °C 1022.4 hPa SSE 6.9 km/h 18.5 km/h 72.2% 0.0 mm
23:24 14.4 °C 9.9 °C 1022.4 hPa Sur 8.1 km/h 19.3 km/h 74.3% 0.0 mm
23:29 14.3 °C 9.9 °C 1022.4 hPa SSO 9.5 km/h 11.3 km/h 75% 0.0 mm
23:34 14.3 °C 9.9 °C 1022.4 hPa Sur 8.6 km/h 11.3 km/h 75% 0.0 mm
23:39 14.3 °C 9.9 °C 1022.7 hPa Sur 7.6 km/h 11.3 km/h 75% 0.0 mm
23:44 14.3 °C 9.9 °C 1022.7 hPa SO 6.3 km/h 9.5 km/h 75% 0.0 mm
23:49 14.3 °C 10 °C 1022.7 hPa OSO 4.7 km/h 9.7 km/h 75% 0.0 mm
23:54 14.4 °C 10 °C 1022.7 hPa OSO 4.3 km/h 8 km/h 75% 0.0 mm
23:59 14.4 °C 10 °C 1022.4 hPa OSO 3.9 km/h 8 km/h 75% 0.0 mm
Murcia-Puente Tocinos, España
Compliments of Weather Underground - 3 mb

La estación de MeteoMurcia.com, publica sus datos en los siguientes proyectos:

Weather Underground PWS IMURCIAP2 Meteoclimatic www.awekas.at

W3Counter
Web Analytics